createdAt,value
2022-11-05T00:00:31.478Z,3.60
2022-11-05T00:03:18.629Z,3.70
2022-11-05T00:06:05.373Z,3.23
2022-11-05T00:08:51.156Z,3.40
2022-11-05T00:11:19.179Z,5.33
2022-11-05T00:14:04.853Z,22.37
2022-11-05T00:16:45.034Z,16.67
2022-11-05T00:19:14.995Z,8.83
2022-11-05T00:22:00.239Z,22.70
2022-11-05T00:24:45.754Z,68.97
2022-11-05T00:27:13.787Z,44.43
2022-11-05T00:29:41.852Z,17.03
2022-11-05T00:32:09.868Z,3.40
2022-11-05T00:34:39.279Z,4.63
2022-11-05T00:37:07.404Z,2.37
2022-11-05T00:39:35.564Z,3.80
2022-11-05T00:42:20.946Z,15.17
2022-11-05T00:45:04.400Z,7.57
2022-11-05T00:47:51.928Z,4.87
2022-11-05T00:50:23.392Z,18.50
2022-11-05T00:52:59.401Z,4.60
2022-11-05T00:55:39.083Z,11.50
2022-11-05T00:58:08.626Z,13.37
2022-11-05T01:00:38.777Z,19.97
2022-11-05T01:03:09.934Z,10.33
2022-11-05T01:05:42.662Z,17.63
2022-11-05T01:08:10.846Z,4.13
2022-11-05T01:10:42.389Z,11.20
2022-11-05T01:13:13.215Z,17.37
2022-11-05T01:15:42.047Z,4.57
2022-11-05T01:18:10.139Z,28.60
2022-11-05T01:20:38.433Z,19.00
2022-11-05T01:23:13.239Z,5.10
2022-11-05T01:25:41.809Z,5.07
2022-11-05T01:28:10.520Z,3.53
2022-11-05T01:30:39.236Z,3.70
2022-11-05T01:33:07.581Z,6.40
2022-11-05T01:35:35.710Z,6.07
2022-11-05T01:38:03.812Z,3.50
2022-11-05T01:40:33.677Z,3.90
2022-11-05T01:43:01.649Z,3.80
2022-11-05T01:45:31.391Z,4.10
2022-11-05T01:48:03.911Z,3.90
2022-11-05T01:50:36.910Z,4.30
2022-11-05T01:53:13.707Z,5.80
2022-11-05T01:55:49.117Z,3.73
2022-11-05T01:58:20.852Z,5.53
2022-11-05T02:00:49.143Z,3.90
2022-11-05T02:03:18.416Z,3.57
2022-11-05T02:05:47.393Z,5.40
2022-11-05T02:08:23.496Z,3.00
2022-11-05T02:10:53.323Z,5.97
2022-11-05T02:13:21.300Z,28.20
2022-11-05T02:16:00.211Z,43.37
2022-11-05T02:18:40.043Z,5.53
2022-11-05T02:21:42.923Z,5.63
2022-11-05T02:24:37.421Z,5.00
2022-11-05T02:27:24.911Z,5.03
2022-11-05T02:30:25.034Z,22.80
2022-11-05T02:33:15.364Z,4.47
2022-11-05T02:35:56.710Z,4.83
2022-11-05T02:38:35.972Z,5.03
2022-11-05T02:41:11.397Z,4.70
2022-11-05T02:43:52.096Z,3.60
2022-11-05T02:46:33.149Z,3.90
2022-11-05T02:49:10.180Z,3.60
2022-11-05T02:51:47.884Z,3.63
2022-11-05T02:54:21.030Z,4.47
2022-11-05T02:56:53.635Z,3.27
2022-11-05T02:59:21.667Z,3.60
2022-11-05T03:01:53.085Z,4.03
2022-11-05T03:04:24.666Z,4.53
2022-11-05T03:07:24.997Z,7.47
2022-11-05T03:10:23.520Z,3.90
2022-11-05T03:13:05.647Z,4.30
2022-11-05T03:15:47.818Z,3.60
2022-11-05T03:18:23.101Z,2.90
2022-11-05T03:20:55.640Z,3.77
2022-11-05T03:23:29.011Z,6.73
2022-11-05T03:26:03.006Z,3.37
2022-11-05T03:28:34.697Z,4.20
2022-11-05T03:31:04.762Z,4.37
2022-11-05T03:33:37.626Z,4.70
2022-11-05T03:36:13.960Z,5.80
2022-11-05T03:38:45.360Z,5.57
2022-11-05T03:41:16.282Z,5.53
2022-11-05T03:43:49.513Z,5.87
2022-11-05T03:46:21.090Z,5.53
2022-11-05T03:48:55.322Z,5.27
2022-11-05T03:51:31.486Z,5.53
2022-11-05T03:54:02.086Z,5.97
2022-11-05T03:56:35.430Z,6.07
2022-11-05T03:59:05.439Z,3.97
2022-11-05T04:01:33.819Z,4.00
2022-11-05T04:04:03.588Z,3.83
2022-11-05T04:06:48.997Z,3.87
2022-11-05T04:09:34.382Z,9.13
2022-11-05T04:12:19.693Z,13.60
2022-11-05T04:14:47.724Z,9.60
2022-11-05T04:17:14.742Z,6.10
2022-11-05T04:20:02.943Z,5.50
2022-11-05T04:22:50.959Z,6.20
2022-11-05T04:25:20.026Z,6.23
2022-11-05T04:27:48.944Z,6.10
2022-11-05T04:30:21.708Z,5.67
2022-11-05T04:33:07.448Z,6.03
2022-11-05T04:35:38.847Z,6.07
2022-11-05T04:38:08.608Z,4.73
2022-11-05T04:40:37.291Z,5.47
2022-11-05T04:43:10.604Z,5.50
2022-11-05T04:45:43.163Z,5.40
2022-11-05T04:48:11.658Z,5.90
2022-11-05T04:50:41.106Z,5.53
2022-11-05T04:53:09.469Z,6.20
2022-11-05T04:55:37.692Z,6.20
2022-11-05T04:58:06.215Z,5.60
2022-11-05T05:00:34.300Z,5.40
2022-11-05T05:03:02.356Z,5.80
2022-11-05T05:05:30.618Z,5.90
2022-11-05T05:08:04.010Z,5.50
2022-11-05T05:10:32.167Z,5.73
2022-11-05T05:13:00.337Z,4.93
2022-11-05T05:15:28.387Z,5.70
2022-11-05T05:17:56.737Z,5.13
2022-11-05T05:20:42.024Z,5.67
2022-11-05T05:23:12.057Z,5.70
2022-11-05T05:25:40.335Z,5.93
2022-11-05T05:28:08.342Z,5.20
2022-11-05T05:30:36.339Z,6.13
2022-11-05T05:33:05.464Z,6.30
2022-11-05T05:35:33.438Z,7.87
2022-11-05T05:38:01.448Z,5.40
2022-11-05T05:40:30.817Z,5.57
2022-11-05T05:42:58.967Z,6.27
2022-11-05T05:45:27.013Z,6.40
2022-11-05T05:47:56.298Z,6.40
2022-11-05T05:50:24.299Z,6.67
2022-11-05T05:52:52.379Z,6.60
2022-11-05T05:55:20.418Z,7.83
2022-11-05T05:57:50.598Z,6.67
2022-11-05T06:00:19.043Z,6.27
2022-11-05T06:02:47.274Z,6.63
2022-11-05T06:05:15.571Z,7.00
2022-11-05T06:07:43.621Z,6.83
2022-11-05T06:10:11.753Z,6.00
2022-11-05T06:12:39.920Z,6.70
2022-11-05T06:15:10.009Z,7.00
2022-11-05T06:17:38.055Z,6.17
2022-11-05T06:20:08.508Z,6.70
2022-11-05T06:22:36.528Z,6.77
2022-11-05T06:25:05.289Z,6.47
2022-11-05T06:27:33.309Z,7.00
2022-11-05T06:30:01.360Z,6.73
2022-11-05T06:32:31.227Z,6.27
2022-11-05T06:34:59.259Z,6.40
2022-11-05T06:37:27.845Z,6.20
2022-11-05T06:39:57.177Z,7.03
2022-11-05T06:42:25.522Z,6.50
2022-11-05T06:44:53.586Z,6.43
2022-11-05T06:47:21.558Z,5.90
2022-11-05T06:49:51.294Z,6.40
2022-11-05T06:52:19.388Z,6.27
2022-11-05T06:54:47.580Z,6.47
2022-11-05T06:57:16.187Z,6.60
2022-11-05T06:59:44.373Z,6.43
2022-11-05T07:02:14.068Z,6.37
2022-11-05T07:04:42.176Z,5.60
2022-11-05T07:07:11.617Z,6.13
2022-11-05T07:09:43.035Z,6.90
2022-11-05T07:12:11.243Z,7.00
2022-11-05T07:14:39.344Z,6.50
2022-11-05T07:17:07.312Z,6.95
2022-11-05T07:19:35.318Z,6.32
2022-11-05T07:22:03.283Z,6.78
2022-11-05T07:24:32.753Z,4.93
2022-11-05T07:27:00.761Z,5.97
2022-11-05T07:29:28.820Z,5.55
2022-11-05T07:31:56.814Z,6.20
2022-11-05T07:34:24.846Z,6.10
2022-11-05T07:36:52.808Z,5.93
2022-11-05T07:39:20.987Z,5.70
2022-11-05T07:41:50.514Z,5.70
2022-11-05T07:44:18.659Z,5.87
2022-11-05T07:46:46.640Z,5.50
2022-11-05T07:49:14.698Z,5.85
2022-11-05T07:51:42.702Z,5.97
2022-11-05T07:54:10.725Z,6.50
2022-11-05T07:56:38.676Z,6.07
2022-11-05T07:59:08.085Z,6.00
2022-11-05T08:01:36.130Z,7.15
2022-11-05T08:04:04.495Z,6.72
2022-11-05T08:06:32.965Z,7.57
2022-11-05T08:09:01.038Z,6.13
2022-11-05T08:11:29.054Z,6.20
2022-11-05T08:13:57.136Z,6.90
2022-11-05T08:16:26.511Z,6.53
2022-11-05T08:18:54.697Z,5.70
2022-11-05T08:21:22.700Z,6.38
2022-11-05T08:23:50.748Z,6.40
2022-11-05T08:26:19.506Z,6.53
2022-11-05T08:28:47.566Z,7.13
2022-11-05T08:31:17.778Z,7.25
2022-11-05T08:33:47.124Z,5.50
2022-11-05T08:36:15.129Z,5.63
2022-11-05T08:38:43.191Z,6.60
2022-11-05T08:41:11.203Z,6.03
2022-11-05T08:43:39.239Z,5.93
2022-11-05T08:46:07.510Z,5.78
2022-11-05T08:48:35.557Z,5.50
2022-11-05T08:51:05.119Z,5.57
2022-11-05T08:53:33.171Z,5.13
2022-11-05T08:56:01.186Z,5.70
2022-11-05T08:58:29.266Z,5.60
2022-11-05T09:01:03.502Z,5.13
2022-11-05T09:03:32.882Z,4.82
2022-11-05T09:06:00.865Z,5.03
2022-11-05T09:08:30.231Z,4.75
2022-11-05T09:10:58.265Z,4.85
2022-11-05T09:13:26.871Z,5.10
2022-11-05T09:15:55.651Z,4.97
2022-11-05T09:18:23.661Z,5.10
2022-11-05T09:20:51.680Z,5.53
2022-11-05T09:23:19.887Z,4.95
2022-11-05T09:25:49.284Z,5.55
2022-11-05T09:28:19.098Z,6.38
2022-11-05T09:30:49.316Z,6.07
2022-11-05T09:33:18.692Z,5.50
2022-11-05T09:35:47.064Z,5.45
2022-11-05T09:38:15.565Z,5.60
2022-11-05T09:40:48.479Z,5.35
2022-11-05T09:43:21.498Z,4.78
2022-11-05T09:45:51.113Z,4.82
2022-11-05T09:48:25.069Z,5.32
2022-11-05T09:50:54.472Z,4.70
2022-11-05T09:53:24.442Z,4.15
2022-11-05T09:55:56.150Z,4.28
2022-11-05T09:58:32.676Z,4.40
2022-11-05T10:01:00.941Z,4.38
2022-11-05T10:03:31.373Z,4.82
2022-11-05T10:06:08.326Z,4.70
2022-11-05T10:08:42.652Z,5.28
2022-11-05T10:11:16.703Z,4.78
2022-11-05T10:13:49.720Z,4.15
2022-11-05T10:16:24.906Z,4.72
2022-11-05T10:18:56.995Z,4.35
2022-11-05T10:21:51.469Z,3.80
2022-11-05T10:24:16.279Z,3.75
2022-11-05T10:26:46.628Z,4.20
2022-11-05T10:29:24.717Z,4.57
2022-11-05T10:31:54.878Z,4.30
2022-11-05T10:34:24.713Z,4.05
2022-11-05T10:36:54.260Z,3.75
2022-11-05T10:39:23.442Z,3.33
2022-11-05T10:42:05.291Z,4.00
2022-11-05T10:44:42.640Z,3.67
2022-11-05T10:47:33.548Z,3.72
2022-11-05T10:50:03.031Z,3.13
2022-11-05T10:52:35.272Z,3.17
2022-11-05T10:55:08.049Z,4.22
2022-11-05T10:57:39.480Z,3.40
2022-11-05T11:00:23.430Z,3.83
2022-11-05T11:02:52.901Z,4.07
2022-11-05T11:05:23.729Z,3.63
2022-11-05T11:07:59.690Z,2.90
2022-11-05T11:10:28.489Z,3.30
2022-11-05T11:12:58.165Z,3.00
2022-11-05T11:15:32.475Z,3.20
2022-11-05T11:18:25.917Z,3.10
2022-11-05T11:20:54.114Z,3.50
2022-11-05T11:23:22.163Z,3.30
2022-11-05T11:25:53.829Z,3.35
2022-11-05T11:28:26.419Z,3.75
2022-11-05T11:31:05.864Z,2.80
2022-11-05T11:33:35.030Z,3.45
2022-11-05T11:36:03.552Z,3.10
2022-11-05T11:38:34.037Z,3.20
2022-11-05T11:41:06.937Z,3.40
2022-11-05T11:43:38.407Z,3.70
2022-11-05T11:46:15.774Z,3.42
2022-11-05T11:48:47.464Z,3.33
2022-11-05T11:51:21.468Z,4.15
2022-11-05T11:53:50.638Z,4.07
2022-11-05T11:56:21.272Z,3.90
2022-11-05T11:58:51.033Z,3.22
2022-11-05T12:01:57.057Z,3.95
2022-11-05T12:04:59.903Z,3.53
2022-11-05T12:07:39.941Z,4.15
2022-11-05T12:10:29.659Z,4.32
2022-11-05T12:13:21.291Z,3.72
2022-11-05T12:15:53.437Z,4.00
2022-11-05T12:18:32.389Z,4.03
2022-11-05T12:21:07.765Z,4.65
2022-11-05T12:24:04.684Z,4.50
2022-11-05T12:26:43.680Z,3.65
2022-11-05T12:29:36.196Z,3.90
2022-11-05T12:32:26.545Z,4.38
2022-11-05T12:35:04.611Z,4.30
2022-11-05T12:37:38.456Z,4.20
2022-11-05T12:40:33.924Z,4.28
2022-11-05T12:43:12.029Z,3.90
2022-11-05T12:45:48.114Z,3.53
2022-11-05T12:48:36.771Z,3.72
2022-11-05T12:51:19.677Z,3.55
2022-11-05T12:54:07.184Z,3.50
2022-11-05T12:56:40.460Z,2.80
2022-11-05T12:59:18.226Z,2.90
2022-11-05T13:01:50.092Z,2.60
2022-11-05T13:04:26.660Z,3.60
2022-11-05T13:06:58.143Z,3.15
2022-11-05T13:09:32.855Z,3.30
2022-11-05T13:12:05.403Z,3.50
2022-11-05T13:14:39.019Z,3.50
2022-11-05T13:17:12.544Z,3.55
2022-11-05T13:19:47.871Z,3.30
2022-11-05T13:22:23.003Z,3.50
2022-11-05T13:24:52.161Z,4.13
2022-11-05T13:27:42.057Z,3.83
2022-11-05T13:30:15.992Z,3.60
2022-11-05T13:32:48.076Z,3.53
2022-11-05T13:35:18.740Z,4.00
2022-11-05T13:38:11.286Z,3.55
2022-11-05T13:40:46.651Z,4.18
2022-11-05T13:43:36.001Z,4.03
2022-11-05T13:46:28.936Z,4.30
2022-11-05T13:49:35.034Z,3.78
2022-11-05T13:52:18.380Z,4.22
2022-11-05T13:55:19.031Z,3.78
2022-11-05T13:58:17.319Z,3.75
2022-11-05T14:00:57.619Z,4.22
2022-11-05T14:03:26.187Z,4.05
2022-11-05T14:05:57.101Z,3.70
2022-11-05T14:08:27.829Z,5.07
2022-11-05T14:11:04.487Z,4.07
2022-11-05T14:13:36.856Z,4.22
2022-11-05T14:16:08.946Z,4.30
2022-11-05T14:18:41.013Z,4.20
2022-11-05T14:21:46.467Z,3.92
2022-11-05T14:24:39.751Z,3.88
2022-11-05T14:27:53.272Z,3.35
2022-11-05T14:30:42.857Z,3.63
2022-11-05T14:33:31.029Z,3.30
2022-11-05T14:36:29.276Z,3.17
2022-11-05T14:39:14.069Z,3.00
2022-11-05T14:41:57.342Z,3.17
2022-11-05T14:44:26.748Z,4.30
2022-11-05T14:46:58.458Z,2.95
2022-11-05T14:49:29.725Z,3.13
2022-11-05T14:52:00.449Z,2.72
2022-11-05T14:54:35.749Z,3.30
2022-11-05T14:57:04.348Z,3.28
2022-11-05T14:59:34.766Z,3.25
2022-11-05T15:02:10.772Z,3.28
2022-11-05T15:04:40.587Z,3.05
2022-11-05T15:07:33.317Z,3.08
2022-11-05T15:10:10.246Z,3.13
2022-11-05T15:12:44.385Z,3.22
2022-11-05T15:15:24.201Z,2.88
2022-11-05T15:18:07.097Z,3.00
2022-11-05T15:20:40.713Z,3.38
2022-11-05T15:23:12.488Z,3.13
2022-11-05T15:25:51.869Z,3.30
2022-11-05T15:28:28.244Z,3.78
2022-11-05T15:31:02.020Z,3.80
2022-11-05T15:33:32.430Z,3.08
2022-11-05T15:36:12.677Z,3.97
2022-11-05T15:38:52.114Z,3.40
2022-11-05T15:41:34.511Z,3.35
2022-11-05T15:44:02.868Z,3.92
2022-11-05T15:46:31.276Z,3.90
2022-11-05T15:49:04.139Z,3.47
2022-11-05T15:51:32.204Z,3.70
2022-11-05T15:54:29.223Z,4.18
2022-11-05T15:56:53.694Z,4.88
2022-11-05T15:59:23.284Z,3.90
2022-11-05T16:01:54.478Z,4.05
2022-11-05T16:04:26.177Z,4.53
2022-11-05T16:06:57.008Z,4.38
2022-11-05T16:09:27.116Z,4.82
2022-11-05T16:12:10.427Z,4.20
2022-11-05T16:14:38.575Z,4.70
2022-11-05T16:17:19.040Z,4.45
2022-11-05T16:19:49.542Z,4.28
2022-11-05T16:22:17.866Z,5.45
2022-11-05T16:24:46.303Z,5.15
2022-11-05T16:27:19.464Z,4.97
2022-11-05T16:29:51.731Z,4.88
2022-11-05T16:32:28.627Z,5.22
2022-11-05T16:35:01.844Z,5.22
2022-11-05T16:37:36.513Z,5.80
2022-11-05T16:40:14.179Z,5.80
2022-11-05T16:42:42.621Z,5.38
2022-11-05T16:45:14.826Z,5.13
2022-11-05T16:47:44.199Z,5.20
2022-11-05T16:50:21.126Z,5.38
2022-11-05T16:52:49.344Z,5.07
2022-11-05T16:55:18.216Z,5.10
2022-11-05T16:57:50.078Z,4.70
2022-11-05T17:00:20.887Z,5.32
2022-11-05T17:02:49.501Z,5.65
2022-11-05T17:05:22.584Z,4.75
2022-11-05T17:07:50.889Z,5.53
2022-11-05T17:10:19.450Z,4.93
2022-11-05T17:12:48.156Z,4.68
2022-11-05T17:15:21.637Z,4.85
2022-11-05T17:17:50.306Z,4.75
2022-11-05T17:20:28.296Z,5.35
2022-11-05T17:22:57.760Z,5.07
2022-11-05T17:25:26.668Z,4.00
2022-11-05T17:27:55.008Z,4.53
2022-11-05T17:30:23.416Z,4.45
2022-11-05T17:32:52.034Z,4.97
2022-11-05T17:35:22.144Z,5.05
2022-11-05T17:37:50.151Z,4.90
2022-11-05T17:40:19.796Z,4.00
2022-11-05T17:42:47.835Z,4.28
2022-11-05T17:45:15.964Z,4.75
2022-11-05T17:47:44.185Z,4.25
2022-11-05T17:50:14.683Z,3.97
2022-11-05T17:52:44.530Z,3.65
2022-11-05T17:55:17.515Z,4.38
2022-11-05T17:57:46.939Z,4.00
2022-11-05T18:00:16.623Z,3.25
2022-11-05T18:02:45.977Z,3.53
2022-11-05T18:05:14.416Z,3.38
2022-11-05T18:07:44.089Z,2.95
2022-11-05T18:10:12.561Z,3.33
2022-11-05T18:12:41.064Z,3.08
2022-11-05T18:15:10.499Z,3.25
2022-11-05T18:17:38.556Z,3.33
2022-11-05T18:20:12.963Z,3.08
2022-11-05T18:22:49.059Z,3.42
2022-11-05T18:25:17.446Z,2.88
2022-11-05T18:27:45.793Z,3.25
2022-11-05T18:30:15.819Z,2.90
2022-11-05T18:32:44.701Z,2.80
2022-11-05T18:35:14.488Z,3.05
2022-11-05T18:37:43.334Z,2.97
2022-11-05T18:40:13.569Z,2.78
2022-11-05T18:42:41.857Z,3.75
2022-11-05T18:45:11.309Z,3.05
2022-11-05T18:47:39.431Z,3.17
2022-11-05T18:50:09.261Z,3.10
2022-11-05T18:52:37.604Z,2.63
2022-11-05T18:55:06.600Z,3.63
2022-11-05T18:57:36.165Z,3.17
2022-11-05T19:00:05.047Z,3.17
2022-11-05T19:02:33.271Z,3.90
2022-11-05T19:07:49.620Z,3.55
2022-11-05T19:10:17.790Z,3.45
2022-11-05T19:12:47.108Z,3.05
2022-11-05T19:15:15.121Z,3.03
2022-11-05T19:17:43.157Z,3.20
2022-11-05T19:20:12.513Z,3.83
2022-11-05T19:22:40.542Z,3.20
2022-11-05T19:25:09.135Z,3.60
2022-11-05T19:27:38.580Z,3.55
2022-11-05T19:30:08.986Z,4.15
2022-11-05T19:32:37.134Z,3.90
2022-11-05T19:35:05.664Z,3.60
2022-11-05T19:37:33.671Z,3.40
2022-11-05T19:40:01.696Z,3.38
2022-11-05T19:42:29.684Z,4.82
2022-11-05T19:45:06.896Z,3.13
2022-11-05T19:47:46.316Z,3.75
2022-11-05T19:50:14.385Z,2.80
2022-11-05T19:52:42.373Z,3.25
2022-11-05T19:55:12.275Z,3.05
2022-11-05T19:57:40.630Z,3.13
2022-11-05T20:00:10.004Z,3.80
2022-11-05T20:02:38.108Z,3.05
2022-11-05T20:05:07.956Z,3.58
2022-11-05T20:07:35.961Z,3.65
2022-11-05T20:10:04.125Z,3.28
2022-11-05T20:12:32.127Z,3.20
2022-11-05T20:15:00.217Z,2.85
2022-11-05T20:17:28.247Z,2.85
2022-11-05T20:19:56.336Z,3.50
2022-11-05T20:22:25.965Z,3.35
2022-11-05T20:24:53.988Z,2.75
2022-11-05T20:27:22.019Z,3.33
2022-11-05T20:29:50.122Z,3.10
2022-11-05T20:32:18.117Z,3.13
2022-11-05T20:34:46.135Z,3.17
2022-11-05T20:37:14.271Z,3.53
2022-11-05T20:39:43.826Z,3.00
2022-11-05T20:42:11.854Z,2.60
2022-11-05T20:44:39.931Z,3.03
2022-11-05T20:47:07.935Z,3.15
2022-11-05T20:49:36.059Z,3.13
2022-11-05T20:52:04.081Z,3.63
2022-11-05T20:54:32.092Z,3.10
2022-11-05T20:57:01.494Z,3.33
2022-11-05T20:59:29.672Z,3.22
2022-11-05T21:01:57.816Z,3.20
2022-11-05T21:04:25.950Z,3.17
2022-11-05T21:06:53.945Z,3.60
2022-11-05T21:09:22.026Z,3.40
2022-11-05T21:12:07.389Z,3.38
2022-11-05T21:14:37.010Z,3.45
2022-11-05T21:17:05.333Z,3.58
2022-11-05T21:19:34.248Z,3.50
2022-11-05T21:22:02.509Z,3.28
2022-11-05T21:24:30.571Z,3.70
2022-11-05T21:26:58.604Z,3.05
2022-11-05T21:29:26.697Z,3.35
2022-11-05T21:31:56.014Z,3.42
2022-11-05T21:34:24.218Z,3.58
2022-11-05T21:36:52.488Z,2.30
2022-11-05T21:39:20.552Z,3.28
2022-11-05T21:41:48.536Z,2.45
2022-11-05T21:44:16.653Z,3.13
2022-11-05T21:46:44.667Z,3.05
2022-11-05T21:49:15.110Z,3.45
2022-11-05T21:52:00.521Z,3.72
2022-11-05T21:54:45.875Z,3.85
2022-11-05T21:57:35.401Z,3.42
2022-11-05T22:00:06.038Z,3.35
2022-11-05T22:02:34.122Z,2.90
2022-11-05T22:05:03.754Z,2.97
2022-11-05T22:07:34.610Z,3.40
2022-11-05T22:10:03.625Z,3.15
2022-11-05T22:12:32.615Z,2.42
2022-11-05T22:15:00.735Z,2.72
2022-11-05T22:17:28.836Z,2.35
2022-11-05T22:19:57.259Z,3.08
2022-11-05T22:22:26.682Z,2.67
2022-11-05T22:24:54.812Z,2.63
2022-11-05T22:27:23.166Z,2.08
2022-11-05T22:29:51.524Z,2.63
2022-11-05T22:32:19.765Z,2.90
2022-11-05T22:34:49.637Z,2.15
2022-11-05T22:37:17.638Z,2.97
2022-11-05T22:39:46.994Z,2.38
2022-11-05T22:42:15.449Z,2.72
2022-11-05T22:44:43.547Z,2.85
2022-11-05T22:47:12.246Z,2.80
2022-11-05T22:49:40.288Z,2.20
2022-11-05T22:52:08.302Z,2.63
2022-11-05T22:54:39.191Z,3.00
2022-11-05T22:57:09.355Z,2.38
2022-11-05T22:59:37.770Z,2.58
2022-11-05T23:02:09.866Z,2.30
2022-11-05T23:04:39.565Z,2.00
2022-11-05T23:07:27.862Z,2.60
2022-11-05T23:10:14.189Z,2.45
2022-11-05T23:12:44.607Z,2.53
2022-11-05T23:15:34.355Z,2.10
2022-11-05T23:18:19.403Z,2.40
2022-11-05T23:21:05.275Z,1.90
2022-11-05T23:23:50.982Z,1.90
2022-11-05T23:26:36.675Z,2.47
2022-11-05T23:29:06.154Z,2.08
2022-11-05T23:31:51.603Z,2.10
2022-11-05T23:34:19.584Z,2.17
2022-11-05T23:37:01.568Z,2.42
2022-11-05T23:39:29.714Z,2.20
2022-11-05T23:42:23.566Z,2.35
2022-11-05T23:45:14.277Z,2.40
2022-11-05T23:48:00.278Z,2.38
2022-11-05T23:50:28.607Z,2.47
2022-11-05T23:52:56.737Z,2.25
2022-11-05T23:55:25.888Z,2.22
2022-11-05T23:57:54.371Z,2.10
